createdAt,value
2022-09-18T00:01:38.625Z,99172.40
2022-09-18T00:04:11.467Z,99173.40
2022-09-18T00:06:40.717Z,99175.40
2022-09-18T00:09:12.974Z,99176.40
2022-09-18T00:11:44.980Z,99175.40
2022-09-18T00:14:17.248Z,99176.20
2022-09-18T00:16:45.336Z,99175.20
2022-09-18T00:19:14.397Z,99180.00
2022-09-18T00:21:46.283Z,99180.60
2022-09-18T00:24:15.087Z,99186.20
2022-09-18T00:26:46.861Z,99185.00
2022-09-18T00:29:16.370Z,99186.60
2022-09-18T00:31:44.603Z,99192.00
2022-09-18T00:34:15.042Z,99189.00
2022-09-18T00:36:43.041Z,99191.60
2022-09-18T00:39:12.025Z,99188.80
2022-09-18T00:41:41.991Z,99190.80
2022-09-18T00:44:36.946Z,99194.80
2022-09-18T00:47:10.824Z,99191.60
2022-09-18T00:49:52.364Z,99197.20
2022-09-18T00:52:24.230Z,99195.20
2022-09-18T00:54:59.144Z,99196.60
2022-09-18T00:57:35.865Z,99196.00
2022-09-18T01:00:14.717Z,99192.60
2022-09-18T01:02:43.766Z,99189.00
2022-09-18T01:05:14.676Z,99188.60
2022-09-18T01:08:19.023Z,99187.80
2022-09-18T01:11:33.823Z,99180.60
2022-09-18T01:14:36.601Z,99180.80
2022-09-18T01:17:19.938Z,99174.80
2022-09-18T01:20:09.008Z,99174.00
2022-09-18T01:23:05.793Z,99175.20
2022-09-18T01:26:01.510Z,99171.60
2022-09-18T01:28:38.980Z,99169.60
2022-09-18T01:31:15.904Z,99174.60
2022-09-18T01:34:01.057Z,99172.60
2022-09-18T01:36:34.579Z,99173.00
2022-09-18T01:39:34.903Z,99170.00
2022-09-18T01:42:05.471Z,99175.20
2022-09-18T01:44:35.187Z,99171.00
2022-09-18T01:47:11.302Z,99173.00
2022-09-18T01:49:46.666Z,99171.80
2022-09-18T01:52:27.855Z,99168.60
2022-09-18T01:54:58.632Z,99158.60
2022-09-18T01:57:44.890Z,99159.40
2022-09-18T02:00:14.460Z,99157.80
2022-09-18T02:03:09.889Z,99157.80
2022-09-18T02:05:44.314Z,99160.80
2022-09-18T02:08:18.398Z,99154.00
2022-09-18T02:10:54.078Z,99154.20
2022-09-18T02:13:29.065Z,99151.80
2022-09-18T02:16:05.488Z,99147.20
2022-09-18T02:18:46.383Z,99147.20
2022-09-18T02:21:28.334Z,99150.40
2022-09-18T02:24:07.837Z,99145.80
2022-09-18T02:26:39.019Z,99146.80
2022-09-18T02:29:12.401Z,99149.40
2022-09-18T02:31:40.724Z,99145.00
2022-09-18T02:34:10.466Z,99149.40
2022-09-18T02:37:18.756Z,99145.40
2022-09-18T02:40:10.300Z,99146.80
2022-09-18T02:42:47.840Z,99143.20
2022-09-18T02:45:45.350Z,99143.20
2022-09-18T02:48:37.048Z,99135.60
2022-09-18T02:51:29.144Z,99130.00
2022-09-18T02:54:30.263Z,99132.80
2022-09-18T02:57:16.554Z,99132.60
2022-09-18T02:59:56.921Z,99129.00
2022-09-18T03:02:26.278Z,99126.20
2022-09-18T03:04:54.826Z,99119.20
2022-09-18T03:07:45.614Z,99118.00
2022-09-18T03:10:13.377Z,99114.80
2022-09-18T03:12:41.160Z,99118.80
2022-09-18T03:15:11.155Z,99117.80
2022-09-18T03:17:38.933Z,99116.20
2022-09-18T03:20:07.565Z,99119.20
2022-09-18T03:22:36.096Z,99119.80
2022-09-18T03:25:04.585Z,99111.40
2022-09-18T03:27:34.108Z,99118.00
2022-09-18T03:30:02.377Z,99121.40
2022-09-18T03:32:32.509Z,99125.00
2022-09-18T03:35:00.371Z,99126.40
2022-09-18T03:37:29.308Z,99133.00
2022-09-18T03:39:58.873Z,99137.60
2022-09-18T03:42:26.748Z,99138.20
2022-09-18T03:44:54.563Z,99138.60
2022-09-18T03:47:31.828Z,99146.80
2022-09-18T03:50:02.682Z,99147.40
2022-09-18T03:52:34.299Z,99147.80
2022-09-18T03:55:11.168Z,99151.00
2022-09-18T03:58:02.249Z,99154.80
2022-09-18T04:00:50.724Z,99152.80
2022-09-18T04:03:22.064Z,99152.80
2022-09-18T04:06:16.230Z,99151.40
2022-09-18T04:09:04.663Z,99152.20
2022-09-18T04:11:39.420Z,99147.20
2022-09-18T04:14:07.636Z,99147.40
2022-09-18T04:16:35.623Z,99148.20
2022-09-18T04:19:04.022Z,99150.80
2022-09-18T04:21:32.702Z,99156.00
2022-09-18T04:24:01.050Z,99155.40
2022-09-18T04:26:28.815Z,99156.60
2022-09-18T04:28:57.999Z,99148.20
2022-09-18T04:31:25.860Z,99151.20
2022-09-18T04:33:54.061Z,99151.20
2022-09-18T04:36:23.076Z,99151.80
2022-09-18T04:38:50.896Z,99153.40
2022-09-18T04:41:18.643Z,99154.20
2022-09-18T04:43:46.534Z,99152.80
2022-09-18T04:46:15.039Z,99153.60
2022-09-18T04:48:49.322Z,99154.80
2022-09-18T04:51:17.610Z,99154.40
2022-09-18T04:53:49.494Z,99154.80
2022-09-18T04:56:17.785Z,99153.60
2022-09-18T04:58:49.577Z,99153.80
2022-09-18T05:01:17.706Z,99155.80
2022-09-18T05:03:45.918Z,99153.40
2022-09-18T05:06:20.654Z,99154.20
2022-09-18T05:08:48.491Z,99151.40
2022-09-18T05:11:16.412Z,99151.20
2022-09-18T05:13:44.375Z,99151.80
2022-09-18T05:16:15.946Z,99153.80
2022-09-18T05:18:46.782Z,99153.80
2022-09-18T05:21:14.705Z,99153.00
2022-09-18T05:23:43.003Z,99152.80
2022-09-18T05:26:13.009Z,99150.00
2022-09-18T05:28:40.942Z,99152.40
2022-09-18T05:31:10.289Z,99150.00
2022-09-18T05:33:42.632Z,99151.60
2022-09-18T05:36:10.847Z,99154.00
2022-09-18T05:38:38.671Z,99156.20
2022-09-18T05:41:07.230Z,99154.80
2022-09-18T05:43:35.154Z,99158.40
2022-09-18T05:46:06.585Z,99160.40
2022-09-18T05:48:41.333Z,99161.00
2022-09-18T05:51:09.394Z,99157.20
2022-09-18T05:53:38.189Z,99155.80
2022-09-18T05:56:16.262Z,99154.60
2022-09-18T05:58:44.642Z,99161.60
2022-09-18T06:01:14.538Z,99157.20
2022-09-18T06:03:59.800Z,99164.20
2022-09-18T06:06:37.105Z,99161.20
2022-09-18T06:09:04.887Z,99165.40
2022-09-18T06:11:33.450Z,99165.40
2022-09-18T06:14:01.243Z,99164.00
2022-09-18T06:16:29.293Z,99169.20
2022-09-18T06:19:01.031Z,99165.40
2022-09-18T06:21:29.008Z,99166.00
2022-09-18T06:23:57.622Z,99168.40
2022-09-18T06:26:33.319Z,99165.80
2022-09-18T06:29:01.262Z,99167.20
2022-09-18T06:31:32.728Z,99170.00
2022-09-18T06:34:06.322Z,99174.80
2022-09-18T06:36:34.199Z,99172.20
2022-09-18T06:39:13.526Z,99169.00
2022-09-18T06:41:42.815Z,99177.40
2022-09-18T06:44:19.180Z,99180.60
2022-09-18T06:46:59.334Z,99177.60
2022-09-18T06:49:29.751Z,99180.00
2022-09-18T06:51:57.622Z,99181.00
2022-09-18T06:54:26.084Z,99185.60
2022-09-18T06:56:53.891Z,99181.60
2022-09-18T06:59:22.767Z,99184.60
2022-09-18T07:01:51.787Z,99187.80
2022-09-18T07:04:32.353Z,99191.40
2022-09-18T07:07:00.319Z,99184.60
2022-09-18T07:09:29.013Z,99188.60
2022-09-18T07:12:03.198Z,99191.20
2022-09-18T07:14:41.229Z,99193.60
2022-09-18T07:17:16.918Z,99191.80
2022-09-18T07:19:46.030Z,99191.80
2022-09-18T07:22:15.218Z,99196.60
2022-09-18T07:24:45.093Z,99191.80
2022-09-18T07:27:13.205Z,99196.60
2022-09-18T07:29:42.269Z,99196.00
2022-09-18T07:32:10.807Z,99201.40
2022-09-18T07:34:38.678Z,99199.80
2022-09-18T07:37:10.785Z,99200.60
2022-09-18T07:39:39.686Z,99199.20
2022-09-18T07:42:43.009Z,99198.20
2022-09-18T07:45:11.432Z,99199.80
2022-09-18T07:47:39.439Z,99196.00
2022-09-18T07:50:09.327Z,99201.20
2022-09-18T07:52:37.071Z,99207.20
2022-09-18T07:55:05.552Z,99204.00
2022-09-18T07:57:34.779Z,99204.00
2022-09-18T08:00:27.279Z,99207.80
2022-09-18T08:03:21.784Z,99205.80
2022-09-18T08:06:28.733Z,99209.60
2022-09-18T08:09:20.059Z,99211.40
2022-09-18T08:12:07.122Z,99214.00
2022-09-18T08:14:42.928Z,99214.20
2022-09-18T08:17:34.515Z,99214.40
2022-09-18T08:20:31.925Z,99218.00
2022-09-18T08:23:15.001Z,99214.80
2022-09-18T08:25:43.563Z,99217.20
2022-09-18T08:43:22.624Z,99207.40
2022-09-18T08:46:14.763Z,99209.80
2022-09-18T08:53:04.790Z,99209.20
2022-09-18T09:06:45.035Z,99209.80
2022-09-18T09:15:29.192Z,99213.20
2022-09-18T09:17:17.310Z,99206.40
2022-09-18T09:20:08.779Z,99210.40
2022-09-18T09:22:55.973Z,99211.40
2022-09-18T09:25:37.666Z,99206.20
2022-09-18T09:28:35.954Z,99206.80
2022-09-18T09:31:43.988Z,99208.40
2022-09-18T09:35:09.759Z,99206.00
2022-09-18T09:38:58.636Z,99210.00
2022-09-18T09:41:44.781Z,99208.00
2022-09-18T09:44:36.117Z,99207.20
2022-09-18T09:47:48.781Z,99208.60
2022-09-18T09:50:44.776Z,99211.00
2022-09-18T09:53:15.900Z,99214.20
2022-09-18T09:57:02.526Z,99215.60
2022-09-18T10:05:03.548Z,99222.40
2022-09-18T10:11:57.045Z,99230.80
2022-09-18T10:27:35.575Z,99241.80
2022-09-18T10:44:29.644Z,99246.40
2022-09-18T10:47:54.194Z,99252.80
2022-09-18T11:10:49.494Z,99264.40
2022-09-18T11:14:39.447Z,99258.20
2022-09-18T11:22:15.534Z,99264.20
2022-09-18T11:29:27.854Z,99266.40
2022-09-18T11:32:58.516Z,99264.40
2022-09-18T11:40:28.564Z,99259.00
2022-09-18T11:43:30.729Z,99263.80
2022-09-18T11:47:52.408Z,99259.40
2022-09-18T11:50:39.158Z,99265.00
2022-09-18T11:53:34.242Z,99262.00
2022-09-18T11:56:10.953Z,99263.40
2022-09-18T12:07:10.558Z,99262.60
2022-09-18T12:14:26.345Z,99268.40
2022-09-18T12:15:26.870Z,99263.00
2022-09-18T12:17:53.333Z,99269.20
2022-09-18T12:20:41.606Z,99263.80
2022-09-18T12:23:26.231Z,99263.40
2022-09-18T12:26:51.779Z,99260.40
2022-09-18T12:29:41.666Z,99266.00
2022-09-18T12:32:57.157Z,99256.60
2022-09-18T12:36:03.744Z,99263.40
2022-09-18T12:39:09.167Z,99256.40
2022-09-18T12:42:33.236Z,99260.00
2022-09-18T12:45:22.595Z,99265.80
2022-09-18T12:48:25.699Z,99262.40
2022-09-18T12:51:10.317Z,99264.80
2022-09-18T12:53:54.953Z,99264.40
2022-09-18T12:57:06.553Z,99269.80
2022-09-18T12:59:56.562Z,99270.20
2022-09-18T13:03:18.580Z,99271.00
2022-09-18T13:10:42.962Z,99267.20
2022-09-18T13:13:41.998Z,99266.00
2022-09-18T13:16:23.748Z,99268.00
2022-09-18T13:19:17.228Z,99268.40
2022-09-18T13:21:47.819Z,99276.40
2022-09-18T13:24:32.929Z,99279.40
2022-09-18T13:27:13.931Z,99280.20
2022-09-18T13:29:59.340Z,99277.00
2022-09-18T13:32:37.412Z,99279.80
2022-09-18T13:35:26.822Z,99277.20
2022-09-18T13:38:15.542Z,99284.80
2022-09-18T13:41:04.095Z,99273.60
2022-09-18T13:43:52.415Z,99279.00
2022-09-18T13:46:39.842Z,99280.00
2022-09-18T13:49:43.016Z,99283.20
2022-09-18T13:52:37.336Z,99285.60
2022-09-18T13:55:16.421Z,99292.80
2022-09-18T13:57:53.091Z,99295.80
2022-09-18T14:00:21.485Z,99296.00
2022-09-18T14:03:07.474Z,99300.00
2022-09-18T14:05:40.507Z,99303.80
2022-09-18T14:08:35.574Z,99299.60
2022-09-18T14:11:17.764Z,99309.60
2022-09-18T14:13:58.466Z,99312.60
2022-09-18T14:16:41.150Z,99315.20
2022-09-18T14:19:33.549Z,99309.20
2022-09-18T14:22:02.264Z,99312.80
2022-09-18T14:24:51.613Z,99317.80
2022-09-18T14:28:01.845Z,99315.60
2022-09-18T14:30:31.533Z,99318.00
2022-09-18T14:33:28.214Z,99305.00
2022-09-18T14:36:06.998Z,99304.40
2022-09-18T14:38:37.870Z,99309.40
2022-09-18T14:41:31.458Z,99302.00
2022-09-18T14:44:06.417Z,99305.40
2022-09-18T14:46:35.251Z,99310.00
2022-09-18T14:49:26.298Z,99308.20
2022-09-18T14:52:04.329Z,99312.40
2022-09-18T14:54:40.448Z,99308.80
2022-09-18T14:57:13.139Z,99316.20
2022-09-18T14:59:43.573Z,99316.80
2022-09-18T15:02:32.706Z,99319.80
2022-09-18T15:05:04.111Z,99315.40
2022-09-18T15:07:40.109Z,99314.80
2022-09-18T15:10:11.629Z,99319.80
2022-09-18T15:12:45.340Z,99315.80
2022-09-18T15:15:40.654Z,99314.20
2022-09-18T15:18:31.751Z,99313.00
2022-09-18T15:21:08.341Z,99309.80
2022-09-18T15:23:38.420Z,99304.60
2022-09-18T15:26:15.856Z,99304.60
2022-09-18T15:28:52.288Z,99302.00
2022-09-18T15:31:24.164Z,99298.80
2022-09-18T15:34:05.877Z,99293.80
2022-09-18T15:36:38.184Z,99291.60
2022-09-18T15:39:35.103Z,99290.40
2022-09-18T15:42:43.223Z,99291.00
2022-09-18T15:45:27.446Z,99288.80
2022-09-18T15:47:58.843Z,99286.20
2022-09-18T15:50:37.149Z,99286.00
2022-09-18T15:53:24.819Z,99289.20
2022-09-18T15:56:09.545Z,99290.60
2022-09-18T15:59:00.926Z,99292.00
2022-09-18T16:01:47.989Z,99287.20
2022-09-18T16:04:42.464Z,99286.80
2022-09-18T16:08:49.823Z,99296.20
2022-09-18T16:11:46.531Z,99293.80
2022-09-18T16:14:38.844Z,99290.80
2022-09-18T16:17:29.158Z,99290.60
2022-09-18T16:20:22.272Z,99291.60
2022-09-18T16:23:11.975Z,99292.80
2022-09-18T16:25:48.113Z,99297.00
2022-09-18T16:28:34.548Z,99288.80
2022-09-18T16:31:04.720Z,99291.00
2022-09-18T16:33:39.115Z,99292.20
2022-09-18T16:36:27.244Z,99297.20
2022-09-18T16:39:15.051Z,99291.80
2022-09-18T16:42:32.206Z,99292.00
2022-09-18T16:45:12.272Z,99294.80
2022-09-18T16:47:49.781Z,99290.00
2022-09-18T16:50:28.454Z,99290.20
2022-09-18T16:53:01.460Z,99290.00
2022-09-18T16:55:41.949Z,99294.40
2022-09-18T17:13:53.274Z,99295.80
2022-09-18T17:16:41.347Z,99293.00
2022-09-18T17:19:10.956Z,99295.00
2022-09-18T17:21:39.545Z,99298.40
2022-09-18T17:24:07.930Z,99298.60
2022-09-18T17:26:39.945Z,99298.00
2022-09-18T17:29:11.350Z,99299.80
2022-09-18T17:31:39.170Z,99297.60
2022-09-18T17:34:07.404Z,99306.80
2022-09-18T17:36:38.094Z,99300.20
2022-09-18T17:39:06.522Z,99299.80
2022-09-18T17:41:34.281Z,99304.40
2022-09-18T17:44:02.585Z,99307.40
2022-09-18T17:46:30.658Z,99307.80
2022-09-18T17:48:59.828Z,99310.20
2022-09-18T17:51:29.159Z,99311.20
2022-09-18T17:54:04.350Z,99315.20
2022-09-18T17:56:33.617Z,99311.40
2022-09-18T17:59:07.786Z,99310.00
2022-09-18T18:01:40.056Z,99313.60
2022-09-18T18:04:08.113Z,99312.00
2022-09-18T18:06:37.116Z,99312.80
2022-09-18T18:09:07.307Z,99315.00
2022-09-18T18:11:35.266Z,99322.40
2022-09-18T18:14:04.280Z,99325.80
2022-09-18T18:16:34.506Z,99326.20
2022-09-18T18:19:06.041Z,99327.40
2022-09-18T18:21:34.769Z,99332.40
2022-09-18T18:24:08.981Z,99338.40
2022-09-18T18:26:38.842Z,99340.60
2022-09-18T18:29:10.778Z,99343.60
2022-09-18T18:31:42.191Z,99345.80
2022-09-18T18:34:12.320Z,99352.40
2022-09-18T18:36:42.057Z,99353.60
2022-09-18T18:39:12.993Z,99354.80
2022-09-18T18:41:41.346Z,99357.60
2022-09-18T18:44:11.478Z,99359.40
2022-09-18T18:46:40.219Z,99358.60
2022-09-18T18:49:12.513Z,99359.60
2022-09-18T18:51:43.731Z,99359.00
2022-09-18T18:54:12.969Z,99361.20
2022-09-18T18:56:41.652Z,99357.80
2022-09-18T18:59:13.582Z,99353.80
2022-09-18T19:01:42.766Z,99354.60
2022-09-18T19:04:14.947Z,99360.40
2022-09-18T19:06:44.421Z,99359.80
2022-09-18T19:09:24.555Z,99360.80
2022-09-18T19:11:53.094Z,99358.60
2022-09-18T19:14:25.256Z,99359.00
2022-09-18T19:16:55.031Z,99365.40
2022-09-18T19:19:25.276Z,99360.20
2022-09-18T19:21:53.551Z,99362.60
2022-09-18T19:24:21.703Z,99363.00
2022-09-18T19:26:49.768Z,99364.80
2022-09-18T19:29:21.521Z,99359.80
2022-09-18T19:31:50.887Z,99358.60
2022-09-18T19:34:22.117Z,99359.40
2022-09-18T19:36:51.903Z,99367.60
2022-09-18T19:39:21.498Z,99369.00
2022-09-18T19:42:14.887Z,99367.20
2022-09-18T19:44:56.282Z,99368.80
2022-09-18T19:47:30.607Z,99370.20
2022-09-18T19:50:01.735Z,99374.00
2022-09-18T19:52:29.765Z,99377.00
2022-09-18T19:54:59.162Z,99376.80
2022-09-18T19:57:28.508Z,99376.40
2022-09-18T19:59:57.280Z,99378.60
2022-09-18T20:02:26.953Z,99376.00
2022-09-18T20:04:55.606Z,99373.00
2022-09-18T20:07:23.387Z,99373.60
2022-09-18T20:09:51.561Z,99368.20
2022-09-18T20:12:19.618Z,99374.80
2022-09-18T20:14:47.862Z,99370.40
2022-09-18T20:17:15.686Z,99368.20
2022-09-18T20:19:43.436Z,99363.20
2022-09-18T20:22:11.439Z,99365.20
2022-09-18T20:24:39.216Z,99360.80
2022-09-18T20:27:06.925Z,99366.60
2022-09-18T20:29:34.740Z,99359.80
2022-09-18T20:32:02.904Z,99361.80
2022-09-18T20:34:30.713Z,99360.40
2022-09-18T20:36:59.117Z,99357.20
2022-09-18T20:39:27.329Z,99359.80
2022-09-18T20:42:00.487Z,99351.20
2022-09-18T20:44:28.856Z,99349.80
2022-09-18T20:46:57.999Z,99351.00
2022-09-18T20:49:26.114Z,99349.00
2022-09-18T20:51:54.562Z,99349.00
2022-09-18T20:54:22.845Z,99349.00
2022-09-18T20:56:50.629Z,99346.20
2022-09-18T20:59:19.493Z,99344.80
2022-09-18T21:01:48.452Z,99347.00
2022-09-18T21:04:19.578Z,99343.00
2022-09-18T21:06:55.289Z,99344.20
2022-09-18T21:09:26.474Z,99342.40
2022-09-18T21:11:56.826Z,99339.20
2022-09-18T21:14:27.355Z,99339.00
2022-09-18T21:16:55.784Z,99336.40
2022-09-18T21:19:26.182Z,99339.40
2022-09-18T21:21:54.370Z,99338.40
2022-09-18T21:24:22.460Z,99344.60
2022-09-18T21:26:50.499Z,99341.60
2022-09-18T21:29:26.228Z,99335.80
2022-09-18T21:31:58.290Z,99335.80
2022-09-18T21:34:31.658Z,99337.60
2022-09-18T21:37:08.133Z,99335.40
2022-09-18T21:39:36.002Z,99334.40
2022-09-18T21:42:09.513Z,99332.60
2022-09-18T21:44:39.151Z,99334.40
2022-09-18T21:47:08.697Z,99334.00
2022-09-18T21:49:36.479Z,99336.60
2022-09-18T21:52:07.655Z,99338.40
2022-09-18T21:54:35.879Z,99336.00
2022-09-18T21:57:04.435Z,99335.20
2022-09-18T21:59:32.950Z,99335.80
2022-09-18T22:02:02.243Z,99336.60
2022-09-18T22:04:32.811Z,99335.20
2022-09-18T22:07:01.881Z,99332.60
2022-09-18T22:09:39.141Z,99336.00
2022-09-18T22:12:07.872Z,99332.40
2022-09-18T22:14:38.240Z,99327.40
2022-09-18T22:17:08.715Z,99333.40
2022-09-18T22:19:41.111Z,99332.20
2022-09-18T22:22:11.179Z,99332.80
2022-09-18T22:24:39.322Z,99331.60
2022-09-18T22:27:10.225Z,99331.80
2022-09-18T22:29:40.220Z,99332.80
2022-09-18T22:32:10.903Z,99334.80
2022-09-18T22:34:39.063Z,99337.60
2022-09-18T22:37:07.967Z,99332.20
2022-09-18T22:39:35.715Z,99335.20
2022-09-18T22:42:03.642Z,99339.20
2022-09-18T22:44:31.549Z,99336.60
2022-09-18T22:46:59.596Z,99344.60
2022-09-18T22:49:27.544Z,99344.80
2022-09-18T22:51:55.366Z,99344.20
2022-09-18T22:54:26.074Z,99345.00
2022-09-18T22:56:55.189Z,99351.20
2022-09-18T22:59:26.222Z,99348.40
2022-09-18T23:02:02.384Z,99349.60
2022-09-18T23:04:33.587Z,99348.80
2022-09-18T23:07:03.333Z,99352.20
2022-09-18T23:09:31.910Z,99351.80
2022-09-18T23:11:59.967Z,99356.00
2022-09-18T23:14:31.197Z,99351.80
2022-09-18T23:17:00.942Z,99354.80
2022-09-18T23:19:34.232Z,99353.60
2022-09-18T23:22:03.013Z,99355.00
2022-09-18T23:24:31.784Z,99352.20
2022-09-18T23:26:59.727Z,99345.00
2022-09-18T23:29:28.666Z,99342.40
2022-09-18T23:31:59.765Z,99344.80
2022-09-18T23:34:31.254Z,99342.80
2022-09-18T23:37:00.351Z,99347.20
2022-09-18T23:39:34.281Z,99344.60
2022-09-18T23:42:05.620Z,99347.80
2022-09-18T23:44:33.529Z,99345.80
2022-09-18T23:47:01.897Z,99345.20
2022-09-18T23:49:30.822Z,99342.40
2022-09-18T23:52:00.046Z,99340.40
2022-09-18T23:54:30.735Z,99338.20
2022-09-18T23:56:58.626Z,99337.80
2022-09-18T23:59:26.919Z,99335.20
